sensor_id;sensor_type;location;lat;lon;timestamp;pressure;altitude;pressure_sealevel;temperature;humidity
53932;BME280;39844;52.496;13.482;2022-12-24T00:00:16;100139.13;;;5.93;100.00
53932;BME280;39844;52.496;13.482;2022-12-24T00:02:41;100145.22;;;5.92;100.00
53932;BME280;39844;52.496;13.482;2022-12-24T00:05:07;100142.59;;;5.91;100.00
53932;BME280;39844;52.496;13.482;2022-12-24T00:07:33;100141.69;;;5.90;100.00
53932;BME280;39844;52.496;13.482;2022-12-24T00:09:58;100149.53;;;5.89;100.00
53932;BME280;39844;52.496;13.482;2022-12-24T00:12:23;100140.84;;;5.88;100.00
53932;BME280;39844;52.496;13.482;2022-12-24T00:14:49;100142.56;;;5.86;100.00
53932;BME280;39844;52.496;13.482;2022-12-24T00:17:14;100136.44;;;5.84;100.00
53932;BME280;39844;52.496;13.482;2022-12-24T00:19:39;100144.25;;;5.84;100.00
53932;BME280;39844;52.496;13.482;2022-12-24T00:22:05;100140.78;;;5.82;100.00
53932;BME280;39844;52.496;13.482;2022-12-24T00:24:30;100136.44;;;5.81;100.00
53932;BME280;39844;52.496;13.482;2022-12-24T00:26:55;100134.66;;;5.80;100.00
53932;BME280;39844;52.496;13.482;2022-12-24T00:29:21;100139.88;;;5.80;100.00
53932;BME280;39844;52.496;13.482;2022-12-24T00:31:46;100136.41;;;5.78;100.00
53932;BME280;39844;52.496;13.482;2022-12-24T00:34:11;100135.53;;;5.78;100.00
53932;BME280;39844;52.496;13.482;2022-12-24T00:36:36;100137.28;;;5.77;100.00
53932;BME280;39844;52.496;13.482;2022-12-24T00:39:02;100134.66;;;5.75;100.00
53932;BME280;39844;52.496;13.482;2022-12-24T00:41:27;100134.66;;;5.75;100.00
53932;BME280;39844;52.496;13.482;2022-12-24T00:46:18;100143.34;;;5.76;100.00
53932;BME280;39844;52.496;13.482;2022-12-24T00:48:43;100148.53;;;5.76;100.00
53932;BME280;39844;52.496;13.482;2022-12-24T00:51:08;100149.44;;;5.77;100.00
53932;BME280;39844;52.496;13.482;2022-12-24T00:53:33;100158.13;;;5.77;100.00
53932;BME280;39844;52.496;13.482;2022-12-24T00:55:59;100151.16;;;5.76;100.00
53932;BME280;39844;52.496;13.482;2022-12-24T00:58:24;100158.97;;;5.78;100.00
53932;BME280;39844;52.496;13.482;2022-12-24T01:00:49;100162.44;;;5.78;100.00
53932;BME280;39844;52.496;13.482;2022-12-24T01:03:15;100167.66;;;5.78;100.00
53932;BME280;39844;52.496;13.482;2022-12-24T01:05:40;100169.41;;;5.79;100.00
53932;BME280;39844;52.496;13.482;2022-12-24T01:08:05;100165.94;;;5.77;100.00
53932;BME280;39844;52.496;13.482;2022-12-24T01:10:30;100174.63;;;5.79;100.00
53932;BME280;39844;52.496;13.482;2022-12-24T01:12:56;100171.13;;;5.80;100.00
53932;BME280;39844;52.496;13.482;2022-12-24T01:15:21;100176.34;;;5.80;100.00
53932;BME280;39844;52.496;13.482;2022-12-24T01:17:46;100181.53;;;5.80;100.00
53932;BME280;39844;52.496;13.482;2022-12-24T01:20:15;100182.44;;;5.82;100.00
53932;BME280;39844;52.496;13.482;2022-12-24T01:22:41;100184.16;;;5.83;100.00
53932;BME280;39844;52.496;13.482;2022-12-24T01:25:06;100202.41;;;5.83;100.00
53932;BME280;39844;52.496;13.482;2022-12-24T01:27:32;100182.44;;;5.84;100.00
53932;BME280;39844;52.496;13.482;2022-12-24T01:29:57;100182.44;;;5.84;100.00
53932;BME280;39844;52.496;13.482;2022-12-24T01:32:22;100185.06;;;5.84;100.00
53932;BME280;39844;52.496;13.482;2022-12-24T01:34:48;100188.53;;;5.84;100.00
53932;BME280;39844;52.496;13.482;2022-12-24T01:37:13;100181.56;;;5.83;100.00
53932;BME280;39844;52.496;13.482;2022-12-24T01:39:38;100182.44;;;5.84;100.00
53932;BME280;39844;52.496;13.482;2022-12-24T01:42:21;100173.81;;;5.85;100.00
53932;BME280;39844;52.496;13.482;2022-12-24T01:44:50;100186.84;;;5.85;100.00
53932;BME280;39844;52.496;13.482;2022-12-24T01:47:25;100186.84;;;5.86;100.00
53932;BME280;39844;52.496;13.482;2022-12-24T01:50:01;100189.44;;;5.86;100.00
53932;BME280;39844;52.496;13.482;2022-12-24T01:52:30;100198.97;;;5.86;100.00
53932;BME280;39844;52.496;13.482;2022-12-24T01:55:04;100204.19;;;5.86;100.00
53932;BME280;39844;52.496;13.482;2022-12-24T01:57:36;100212.88;;;5.86;100.00
53932;BME280;39844;52.496;13.482;2022-12-24T02:00:11;100205.06;;;5.86;100.00
53932;BME280;39844;52.496;13.482;2022-12-24T02:02:38;100216.34;;;5.88;100.00
53932;BME280;39844;52.496;13.482;2022-12-24T02:05:07;100214.63;;;5.87;100.00
53932;BME280;39844;52.496;13.482;2022-12-24T02:07:35;100219.84;;;5.87;100.00
53932;BME280;39844;52.496;13.482;2022-12-24T02:10:04;100225.91;;;5.88;100.00
53932;BME280;39844;52.496;13.482;2022-12-24T02:12:31;100227.66;;;5.89;100.00
53932;BME280;39844;52.496;13.482;2022-12-24T02:14:59;100231.13;;;5.89;100.00
53932;BME280;39844;52.496;13.482;2022-12-24T02:17:29;100229.41;;;5.90;100.00
53932;BME280;39844;52.496;13.482;2022-12-24T02:20:18;100238.06;;;5.90;100.00
53932;BME280;39844;52.496;13.482;2022-12-24T02:32:12;100261.53;;;5.92;100.00
53932;BME280;39844;52.496;13.482;2022-12-24T02:34:44;100260.66;;;5.91;100.00
53932;BME280;39844;52.496;13.482;2022-12-24T02:37:14;100267.63;;;5.92;100.00
53932;BME280;39844;52.496;13.482;2022-12-24T02:39:48;100269.34;;;5.92;100.00
53932;BME280;39844;52.496;13.482;2022-12-24T02:42:19;100275.44;;;5.92;100.00
53932;BME280;39844;52.496;13.482;2022-12-24T02:44:56;100282.38;;;5.93;100.00
53932;BME280;39844;52.496;13.482;2022-12-24T02:47:25;100278.03;;;5.92;100.00
53932;BME280;39844;52.496;13.482;2022-12-24T02:49:52;100280.66;;;5.92;100.00
53932;BME280;39844;52.496;13.482;2022-12-24T02:52:35;100284.09;;;5.91;100.00
53932;BME280;39844;52.496;13.482;2022-12-24T02:55:23;100282.38;;;5.93;100.00
53932;BME280;39844;52.496;13.482;2022-12-24T03:04:06;100296.25;;;5.89;100.00
53932;BME280;39844;52.496;13.482;2022-12-24T03:06:42;100291.03;;;5.89;100.00
53932;BME280;39844;52.496;13.482;2022-12-24T03:09:24;100295.38;;;5.89;100.00
53932;BME280;39844;52.496;13.482;2022-12-24T03:12:02;100295.38;;;5.89;100.00
53932;BME280;39844;52.496;13.482;2022-12-24T03:14:28;100310.13;;;5.88;100.00
53932;BME280;39844;52.496;13.482;2022-12-24T03:16:56;100306.63;;;5.86;100.00
53932;BME280;39844;52.496;13.482;2022-12-24T03:19:23;100306.63;;;5.86;100.00
53932;BME280;39844;52.496;13.482;2022-12-24T03:21:50;100314.44;;;5.85;100.00
53932;BME280;39844;52.496;13.482;2022-12-24T03:24:16;100314.44;;;5.85;100.00
53932;BME280;39844;52.496;13.482;2022-12-24T03:26:43;100311.78;;;5.83;100.00
53932;BME280;39844;52.496;13.482;2022-12-24T03:29:10;100325.69;;;5.82;100.00
53932;BME280;39844;52.496;13.482;2022-12-24T03:31:48;100324.78;;;5.82;100.00
53932;BME280;39844;52.496;13.482;2022-12-24T03:34:14;100325.69;;;5.82;100.00
53932;BME280;39844;52.496;13.482;2022-12-24T03:36:40;100329.13;;;5.81;100.00
53932;BME280;39844;52.496;13.482;2022-12-24T03:39:06;100325.63;;;5.79;100.00
53932;BME280;39844;52.496;13.482;2022-12-24T03:41:32;100333.44;;;5.81;100.00
53932;BME280;39844;52.496;13.482;2022-12-24T03:43:58;100336.94;;;5.80;100.00
53932;BME280;39844;52.496;13.482;2022-12-24T03:46:23;100335.19;;;5.79;100.00
53932;BME280;39844;52.496;13.482;2022-12-24T03:48:48;100346.47;;;5.79;100.00
53932;BME280;39844;52.496;13.482;2022-12-24T03:51:19;100353.41;;;5.80;100.00
53932;BME280;39844;52.496;13.482;2022-12-24T03:53:45;100347.34;;;5.80;100.00
53932;BME280;39844;52.496;13.482;2022-12-24T03:56:11;100356.88;;;5.79;100.00
53932;BME280;39844;52.496;13.482;2022-12-24T03:58:36;100362.94;;;5.78;100.00
53932;BME280;39844;52.496;13.482;2022-12-24T04:01:02;100360.34;;;5.78;100.00
53932;BME280;39844;52.496;13.482;2022-12-24T04:03:27;100375.97;;;5.78;100.00
53932;BME280;39844;52.496;13.482;2022-12-24T04:06:07;100369.88;;;5.78;100.00
53932;BME280;39844;52.496;13.482;2022-12-24T04:08:33;100373.34;;;5.78;100.00
53932;BME280;39844;52.496;13.482;2022-12-24T04:10:59;100364.66;;;5.76;100.00
53932;BME280;39844;52.496;13.482;2022-12-24T04:13:24;100382.88;;;5.76;100.00
53932;BME280;39844;52.496;13.482;2022-12-24T04:15:58;100370.72;;;5.75;100.00
53932;BME280;39844;52.496;13.482;2022-12-24T04:18:23;100366.38;;;5.74;100.00
53932;BME280;39844;52.496;13.482;2022-12-24T04:20:49;100359.41;;;5.73;100.00
53932;BME280;39844;52.496;13.482;2022-12-24T04:23:14;100353.34;;;5.71;100.00
53932;BME280;39844;52.496;13.482;2022-12-24T04:25:39;100362.00;;;5.70;100.00
53932;BME280;39844;52.496;13.482;2022-12-24T04:28:05;100372.41;;;5.70;100.00
53932;BME280;39844;52.496;13.482;2022-12-24T04:30:30;100370.69;;;5.69;100.00
53932;BME280;39844;52.496;13.482;2022-12-24T04:32:55;100380.22;;;5.68;100.00
53932;BME280;39844;52.496;13.482;2022-12-24T04:35:21;100386.31;;;5.69;100.00
53932;BME280;39844;52.496;13.482;2022-12-24T04:37:46;100390.59;;;5.67;100.00
53932;BME280;39844;52.496;13.482;2022-12-24T04:40:11;100397.56;;;5.68;100.00
53932;BME280;39844;52.496;13.482;2022-12-24T04:42:37;100399.31;;;5.69;100.00
53932;BME280;39844;52.496;13.482;2022-12-24T04:45:02;100409.72;;;5.69;100.00
53932;BME280;39844;52.496;13.482;2022-12-24T04:47:27;100417.53;;;5.69;100.00
53932;BME280;39844;52.496;13.482;2022-12-24T04:49:53;100425.34;;;5.69;100.00
53932;BME280;39844;52.496;13.482;2022-12-24T04:52:18;100430.56;;;5.69;100.00
53932;BME280;39844;52.496;13.482;2022-12-24T04:54:43;100423.59;;;5.69;100.00
53932;BME280;39844;52.496;13.482;2022-12-24T04:57:09;100428.81;;;5.69;100.00
53932;BME280;39844;52.496;13.482;2022-12-24T04:59:34;100425.34;;;5.70;100.00
53932;BME280;39844;52.496;13.482;2022-12-24T05:01:59;100427.97;;;5.69;100.00
53932;BME280;39844;52.496;13.482;2022-12-24T05:04:24;100431.41;;;5.68;100.00
53932;BME280;39844;52.496;13.482;2022-12-24T05:06:50;100433.16;;;5.69;100.00
53932;BME280;39844;52.496;13.482;2022-12-24T05:09:15;100436.63;;;5.69;100.00
53932;BME280;39844;52.496;13.482;2022-12-24T05:11:40;100438.38;;;5.69;100.00
53932;BME280;39844;52.496;13.482;2022-12-24T05:14:06;100445.25;;;5.67;100.00
53932;BME280;39844;52.496;13.482;2022-12-24T05:16:31;100440.06;;;5.67;100.00
53932;BME280;39844;52.496;13.482;2022-12-24T05:18:56;100436.59;;;5.66;100.00
53932;BME280;39844;52.496;13.482;2022-12-24T05:21:23;100441.81;;;5.66;100.00
53932;BME280;39844;52.496;13.482;2022-12-24T05:23:48;100438.34;;;5.66;100.00
53932;BME280;39844;52.496;13.482;2022-12-24T05:26:24;100434.84;;;5.64;100.00
53932;BME280;39844;52.496;13.482;2022-12-24T05:28:53;100442.66;;;5.64;100.00
53932;BME280;39844;52.496;13.482;2022-12-24T05:31:21;100444.38;;;5.63;100.00
53932;BME280;39844;52.496;13.482;2022-12-24T05:33:47;100433.09;;;5.63;100.00
53932;BME280;39844;52.496;13.482;2022-12-24T05:36:13;100441.75;;;5.62;100.00
53932;BME280;39844;52.496;13.482;2022-12-24T05:38:39;100433.09;;;5.63;100.00
53932;BME280;39844;52.496;13.482;2022-12-24T05:41:05;100440.91;;;5.63;100.00
53932;BME280;39844;52.496;13.482;2022-12-24T05:43:30;100448.72;;;5.63;100.00
53932;BME280;39844;52.496;13.482;2022-12-24T05:45:59;100449.53;;;5.62;100.00
53932;BME280;39844;52.496;13.482;2022-12-24T05:48:24;100453.03;;;5.62;100.00
53932;BME280;39844;52.496;13.482;2022-12-24T05:50:49;100453.88;;;5.60;100.00
53932;BME280;39844;52.496;13.482;2022-12-24T05:53:15;100457.34;;;5.59;100.00
53932;BME280;39844;52.496;13.482;2022-12-24T05:55:40;100466.88;;;5.58;100.00
53932;BME280;39844;52.496;13.482;2022-12-24T05:58:05;100466.00;;;5.58;100.00
53932;BME280;39844;52.496;13.482;2022-12-24T06:00:31;100463.41;;;5.56;100.00
53932;BME280;39844;52.496;13.482;2022-12-24T06:02:56;100462.50;;;5.56;100.00
53932;BME280;39844;52.496;13.482;2022-12-24T06:05:21;100468.56;;;5.55;100.00
53932;BME280;39844;52.496;13.482;2022-12-24T06:07:46;100484.19;;;5.55;100.00
53932;BME280;39844;52.496;13.482;2022-12-24T06:10:12;100484.19;;;5.55;100.00
53932;BME280;39844;52.496;13.482;2022-12-24T06:12:37;100472.03;;;5.54;100.00
53932;BME280;39844;52.496;13.482;2022-12-24T06:15:03;100481.56;;;5.55;100.00
53932;BME280;39844;52.496;13.482;2022-12-24T06:17:28;100485.91;;;5.54;100.00
53932;BME280;39844;52.496;13.482;2022-12-24T06:19:53;100491.09;;;5.54;100.00
53932;BME280;39844;52.496;13.482;2022-12-24T06:22:19;100487.66;;;5.54;100.00
53932;BME280;39844;52.496;13.482;2022-12-24T06:24:44;100499.81;;;5.55;100.00
53932;BME280;39844;52.496;13.482;2022-12-24T06:27:09;100502.41;;;5.55;100.00
53932;BME280;39844;52.496;13.482;2022-12-24T06:29:34;100494.59;;;5.53;100.00
53932;BME280;39844;52.496;13.482;2022-12-24T06:32:00;100500.69;;;5.54;100.00
53932;BME280;39844;52.496;13.482;2022-12-24T06:34:25;100499.78;;;5.53;100.00
53932;BME280;39844;52.496;13.482;2022-12-24T06:36:50;100511.03;;;5.52;100.00
53932;BME280;39844;52.496;13.482;2022-12-24T06:39:16;100524.06;;;5.51;100.00
53932;BME280;39844;52.496;13.482;2022-12-24T06:41:41;100523.16;;;5.49;100.00
53932;BME280;39844;52.496;13.482;2022-12-24T06:44:07;100516.19;;;5.48;100.00
53932;BME280;39844;52.496;13.482;2022-12-24T06:46:33;100527.50;;;5.50;100.00
53932;BME280;39844;52.496;13.482;2022-12-24T06:48:58;100534.47;;;5.51;100.00
53932;BME280;39844;52.496;13.482;2022-12-24T06:51:25;100535.34;;;5.51;100.00
53932;BME280;39844;52.496;13.482;2022-12-24T06:53:50;100534.47;;;5.51;100.00
53932;BME280;39844;52.496;13.482;2022-12-24T06:56:17;100535.34;;;5.51;100.00
53932;BME280;39844;52.496;13.482;2022-12-24T06:58:43;100530.16;;;5.51;100.00
53932;BME280;39844;52.496;13.482;2022-12-24T07:01:11;100535.34;;;5.51;100.00
53932;BME280;39844;52.496;13.482;2022-12-24T07:03:36;100542.28;;;5.51;100.00
53932;BME280;39844;52.496;13.482;2022-12-24T07:06:02;100540.50;;;5.50;100.00
53932;BME280;39844;52.496;13.482;2022-12-24T07:08:27;100548.31;;;5.48;100.00
53932;BME280;39844;52.496;13.482;2022-12-24T07:10:53;100550.94;;;5.50;100.00
53932;BME280;39844;52.496;13.482;2022-12-24T07:13:19;100550.03;;;5.49;100.00
53932;BME280;39844;52.496;13.482;2022-12-24T07:15:44;100557.84;;;5.49;100.00
53932;BME280;39844;52.496;13.482;2022-12-24T07:18:10;100571.75;;;5.50;100.00
53932;BME280;39844;52.496;13.482;2022-12-24T07:20:36;100575.22;;;5.49;100.00
53932;BME280;39844;52.496;13.482;2022-12-24T07:23:01;100584.81;;;5.51;100.00
53932;BME280;39844;52.496;13.482;2022-12-24T07:25:26;100584.81;;;5.51;100.00
53932;BME280;39844;52.496;13.482;2022-12-24T07:27:52;100594.34;;;5.51;100.00
53932;BME280;39844;52.496;13.482;2022-12-24T07:30:17;100590.84;;;5.49;100.00
53932;BME280;39844;52.496;13.482;2022-12-24T07:32:42;100596.06;;;5.50;100.00
53932;BME280;39844;52.496;13.482;2022-12-24T07:35:08;100596.94;;;5.51;100.00
53932;BME280;39844;52.496;13.482;2022-12-24T07:37:33;100599.53;;;5.51;100.00
53932;BME280;39844;52.496;13.482;2022-12-24T07:39:59;100604.75;;;5.52;100.00
53932;BME280;39844;52.496;13.482;2022-12-24T07:42:24;100601.31;;;5.55;100.00
53932;BME280;39844;52.496;13.482;2022-12-24T07:44:49;100598.72;;;5.55;100.00
53932;BME280;39844;52.496;13.482;2022-12-24T07:47:15;100606.53;;;5.55;100.00
53932;BME280;39844;52.496;13.482;2022-12-24T07:49:40;100606.53;;;5.55;100.00
53932;BME280;39844;52.496;13.482;2022-12-24T07:52:05;100606.53;;;5.55;100.00
53932;BME280;39844;52.496;13.482;2022-12-24T07:54:31;100624.75;;;5.55;100.00
53932;BME280;39844;52.496;13.482;2022-12-24T07:56:56;100628.25;;;5.57;100.00
53932;BME280;39844;52.496;13.482;2022-12-24T07:59:21;100634.38;;;5.59;100.00
53932;BME280;39844;52.496;13.482;2022-12-24T08:01:46;100624.78;;;5.58;100.00
53932;BME280;39844;52.496;13.482;2022-12-24T08:04:12;100629.13;;;5.57;100.00
53932;BME280;39844;52.496;13.482;2022-12-24T08:06:37;100633.50;;;5.58;100.00
53932;BME280;39844;52.496;13.482;2022-12-24T08:09:03;100630.00;;;5.58;100.00
53932;BME280;39844;52.496;13.482;2022-12-24T08:11:29;100629.16;;;5.59;100.00
53932;BME280;39844;52.496;13.482;2022-12-24T08:13:54;100625.63;;;5.57;100.00
53932;BME280;39844;52.496;13.482;2022-12-24T08:16:19;100635.22;;;5.58;100.00
53932;BME280;39844;52.496;13.482;2022-12-24T08:18:45;100637.81;;;5.58;100.00
53932;BME280;39844;52.496;13.482;2022-12-24T08:21:10;100640.41;;;5.56;100.00
53932;BME280;39844;52.496;13.482;2022-12-24T08:23:36;100639.53;;;5.56;100.00
53932;BME280;39844;52.496;13.482;2022-12-24T08:26:01;100634.31;;;5.56;100.00
53932;BME280;39844;52.496;13.482;2022-12-24T08:28:27;100633.44;;;5.55;100.00
53932;BME280;39844;52.496;13.482;2022-12-24T08:30:53;100626.47;;;5.54;100.00
53932;BME280;39844;52.496;13.482;2022-12-24T08:33:18;100636.03;;;5.54;100.00
53932;BME280;39844;52.496;13.482;2022-12-24T08:35:52;100646.44;;;5.54;100.00
53932;BME280;39844;52.496;13.482;2022-12-24T08:38:18;100642.09;;;5.54;100.00
53932;BME280;39844;52.496;13.482;2022-12-24T08:40:44;100639.47;;;5.54;100.00
53932;BME280;39844;52.496;13.482;2022-12-24T08:43:10;100642.97;;;5.55;100.00
53932;BME280;39844;52.496;13.482;2022-12-24T08:45:37;100646.44;;;5.54;100.00
53932;BME280;39844;52.496;13.482;2022-12-24T08:48:03;100646.47;;;5.55;100.00
53932;BME280;39844;52.496;13.482;2022-12-24T08:50:28;100659.47;;;5.57;100.00
53932;BME280;39844;52.496;13.482;2022-12-24T08:52:53;100656.88;;;5.57;100.00
53932;BME280;39844;52.496;13.482;2022-12-24T08:55:19;100665.63;;;5.59;100.00
53932;BME280;39844;52.496;13.482;2022-12-24T08:57:44;100666.50;;;5.61;100.00
53932;BME280;39844;52.496;13.482;2022-12-24T09:00:10;100665.63;;;5.62;100.00
53932;BME280;39844;52.496;13.482;2022-12-24T09:02:36;100669.16;;;5.64;100.00
53932;BME280;39844;52.496;13.482;2022-12-24T09:05:01;100664.81;;;5.64;100.00
53932;BME280;39844;52.496;13.482;2022-12-24T09:07:27;100677.88;;;5.66;100.00
53932;BME280;39844;52.496;13.482;2022-12-24T09:09:52;100677.88;;;5.66;100.00
53932;BME280;39844;52.496;13.482;2022-12-24T09:12:17;100677.88;;;5.66;100.00
53932;BME280;39844;52.496;13.482;2022-12-24T09:14:43;100686.56;;;5.68;100.00
53932;BME280;39844;52.496;13.482;2022-12-24T09:17:08;100691.78;;;5.68;100.00
53932;BME280;39844;52.496;13.482;2022-12-24T09:19:33;100685.72;;;5.69;100.00
53932;BME280;39844;52.496;13.482;2022-12-24T09:21:58;100690.06;;;5.70;100.00
53932;BME280;39844;52.496;13.482;2022-12-24T09:24:24;100698.75;;;5.72;100.00
53932;BME280;39844;52.496;13.482;2022-12-24T09:26:49;100703.97;;;5.72;100.00
53932;BME280;39844;52.496;13.482;2022-12-24T09:29:15;100698.75;;;5.72;100.00
53932;BME280;39844;52.496;13.482;2022-12-24T09:31:41;100704.91;;;5.75;100.00
53932;BME280;39844;52.496;13.482;2022-12-24T09:34:06;100704.06;;;5.78;100.00
53932;BME280;39844;52.496;13.482;2022-12-24T09:36:32;100707.63;;;5.82;100.00
53932;BME280;39844;52.496;13.482;2022-12-24T09:38:58;100705.03;;;5.83;100.00
53932;BME280;39844;52.496;13.482;2022-12-24T09:41:39;100714.59;;;5.84;100.00
53932;BME280;39844;52.496;13.482;2022-12-24T09:44:23;100711.16;;;5.85;100.00
53932;BME280;39844;52.496;13.482;2022-12-24T09:46:53;100726.81;;;5.87;100.00
53932;BME280;39844;52.496;13.482;2022-12-24T09:49:22;100744.09;;;5.83;100.00
53932;BME280;39844;52.496;13.482;2022-12-24T09:51:58;100747.41;;;5.73;100.00
53932;BME280;39844;52.496;13.482;2022-12-24T09:54:29;100750.78;;;5.66;100.00
53932;BME280;39844;52.496;13.482;2022-12-24T09:56:57;100751.66;;;5.68;100.00
53932;BME280;39844;52.496;13.482;2022-12-24T09:59:32;100746.53;;;5.72;100.00
53932;BME280;39844;52.496;13.482;2022-12-24T10:01:59;100745.75;;;5.78;100.00
53932;BME280;39844;52.496;13.482;2022-12-24T10:04:27;100757.97;;;5.82;100.00
53932;BME280;39844;52.496;13.482;2022-12-24T10:07:19;100750.22;;;5.85;100.00
53932;BME280;39844;52.496;13.482;2022-12-24T10:10:00;100771.16;;;5.90;100.00
53932;BME280;39844;52.496;13.482;2022-12-24T10:12:57;100775.53;;;5.92;100.00
53932;BME280;39844;52.496;13.482;2022-12-24T10:15:45;100777.00;;;5.78;100.00
53932;BME280;39844;52.496;13.482;2022-12-24T10:18:35;100783.03;;;5.74;100.00
53932;BME280;39844;52.496;13.482;2022-12-24T10:21:26;100773.50;;;5.76;100.00
53932;BME280;39844;52.496;13.482;2022-12-24T10:24:05;100780.53;;;5.83;100.00
53932;BME280;39844;52.496;13.482;2022-12-24T10:26:47;100775.44;;;5.88;100.00
53932;BME280;39844;52.496;13.482;2022-12-24T10:29:17;100779.88;;;5.93;100.00
53932;BME280;39844;52.496;13.482;2022-12-24T10:34:40;100779.16;;;6.03;100.00
53932;BME280;39844;52.496;13.482;2022-12-24T10:37:14;100794.91;;;6.09;100.00
53932;BME280;39844;52.496;13.482;2022-12-24T10:39:41;100797.56;;;6.12;100.00
53932;BME280;39844;52.496;13.482;2022-12-24T10:42:07;100796.72;;;6.16;100.00
53932;BME280;39844;52.496;13.482;2022-12-24T10:44:33;100803.72;;;6.20;100.00
53932;BME280;39844;52.496;13.482;2022-12-24T10:46:58;100803.78;;;6.22;100.00
53932;BME280;39844;52.496;13.482;2022-12-24T10:52:24;100811.66;;;6.26;100.00
53932;BME280;39844;52.496;13.482;2022-12-24T10:55:10;100814.38;;;6.32;100.00
53932;BME280;39844;52.496;13.482;2022-12-24T10:57:37;100819.63;;;6.37;100.00
53932;BME280;39844;52.496;13.482;2022-12-24T11:00:05;100819.75;;;6.45;100.00
53932;BME280;39844;52.496;13.482;2022-12-24T11:02:35;100814.63;;;6.52;100.00
53932;BME280;39844;52.496;13.482;2022-12-24T11:05:03;100826.06;;;6.62;100.00
53932;BME280;39844;52.496;13.482;2022-12-24T11:07:30;100825.28;;;6.69;100.00
53932;BME280;39844;52.496;13.482;2022-12-24T11:10:06;100829.75;;;6.76;100.00
53932;BME280;39844;52.496;13.482;2022-12-24T11:12:34;100829.81;;;6.82;100.00
53932;BME280;39844;52.496;13.482;2022-12-24T11:15:04;100828.13;;;6.87;100.00
53932;BME280;39844;52.496;13.482;2022-12-24T11:17:32;100836.84;;;6.87;100.00
53932;BME280;39844;52.496;13.482;2022-12-24T11:19:57;100839.50;;;6.92;100.00
53932;BME280;39844;52.496;13.482;2022-12-24T11:22:25;100839.53;;;6.95;100.00
53932;BME280;39844;52.496;13.482;2022-12-24T11:35:24;100834.59;;;7.16;100.00
53932;BME280;39844;52.496;13.482;2022-12-24T11:40:30;100846.78;;;7.19;100.00
53932;BME280;39844;52.496;13.482;2022-12-24T11:42:59;100845.91;;;7.20;100.00
53932;BME280;39844;52.496;13.482;2022-12-24T11:45:27;100859.00;;;7.21;100.00
53932;BME280;39844;52.496;13.482;2022-12-24T11:47:54;100857.28;;;7.23;100.00
53932;BME280;39844;52.496;13.482;2022-12-24T11:50:35;100860.78;;;7.25;100.00
53932;BME280;39844;52.496;13.482;2022-12-24T11:53:17;100872.09;;;7.24;100.00
53932;BME280;39844;52.496;13.482;2022-12-24T11:55:52;100857.31;;;7.26;100.00
53932;BME280;39844;52.496;13.482;2022-12-24T12:01:15;100873.88;;;7.30;100.00
53932;BME280;39844;52.496;13.482;2022-12-24T12:03:56;100873.94;;;7.33;100.00
53932;BME280;39844;52.496;13.482;2022-12-24T12:06:45;100874.84;;;7.36;100.00
53932;BME280;39844;52.496;13.482;2022-12-24T12:09:19;100875.69;;;7.34;100.00
53932;BME280;39844;52.496;13.482;2022-12-24T12:11:51;100872.19;;;7.35;100.00
53932;BME280;39844;52.496;13.482;2022-12-24T12:14:21;100879.19;;;7.36;100.00
53932;BME280;39844;52.496;13.482;2022-12-24T12:17:02;100878.31;;;7.35;100.00
53932;BME280;39844;52.496;13.482;2022-12-24T12:19:40;100879.19;;;7.36;100.00
53932;BME280;39844;52.496;13.482;2022-12-24T12:22:17;100880.97;;;7.40;100.00
53932;BME280;39844;52.496;13.482;2022-12-24T12:24:50;100886.25;;;7.46;100.00
53932;BME280;39844;52.496;13.482;2022-12-24T12:27:33;100879.38;;;7.52;100.00
53932;BME280;39844;52.496;13.482;2022-12-24T12:30:05;100884.66;;;7.57;100.00
53932;BME280;39844;52.496;13.482;2022-12-24T12:32:39;100884.69;;;7.60;100.00
53932;BME280;39844;52.496;13.482;2022-12-24T12:35:20;100886.47;;;7.62;100.00
53932;BME280;39844;52.496;13.482;2022-12-24T12:38:01;100892.56;;;7.66;100.00
53932;BME280;39844;52.496;13.482;2022-12-24T12:43:41;100888.34;;;7.77;100.00
53932;BME280;39844;52.496;13.482;2022-12-24T12:46:18;100902.28;;;7.81;100.00
53932;BME280;39844;52.496;13.482;2022-12-24T12:53:58;100910.19;;;7.82;100.00
53932;BME280;39844;52.496;13.482;2022-12-24T12:56:31;100906.72;;;7.85;100.00
53932;BME280;39844;52.496;13.482;2022-12-24T12:59:08;100915.44;;;7.87;100.00
53932;BME280;39844;52.496;13.482;2022-12-24T13:02:03;100918.09;;;7.90;100.00
53932;BME280;39844;52.496;13.482;2022-12-24T13:21:23;100907.81;;;8.08;100.00
53932;BME280;39844;52.496;13.482;2022-12-24T13:23:50;100906.06;;;8.08;100.00
53932;BME280;39844;52.496;13.482;2022-12-24T13:26:28;100904.31;;;8.09;100.00
53932;BME280;39844;52.496;13.482;2022-12-24T13:28:53;100909.56;;;8.10;100.00
53932;BME280;39844;52.496;13.482;2022-12-24T13:33:47;100916.53;;;8.11;100.00
53932;BME280;39844;52.496;13.482;2022-12-24T13:36:14;100918.31;;;8.11;100.00
53932;BME280;39844;52.496;13.482;2022-12-24T13:38:56;100932.22;;;8.10;100.00
53932;BME280;39844;52.496;13.482;2022-12-24T13:49:36;100945.47;;;8.26;100.00
53932;BME280;39844;52.496;13.482;2022-12-24T13:52:15;100953.31;;;8.26;100.00
53932;BME280;39844;52.496;13.482;2022-12-24T14:08:38;100974.03;;;8.08;100.00
53932;BME280;39844;52.496;13.482;2022-12-24T14:11:19;100985.34;;;8.09;100.00
53932;BME280;39844;52.496;13.482;2022-12-24T14:16:24;100990.63;;;8.12;100.00
53932;BME280;39844;52.496;13.482;2022-12-24T14:19:22;100996.72;;;8.14;100.00